Time;durP1;ratioP1;P1;durP2;ratioP2;P2;SDS_P1;SDS_P2;PMS_P1;PMS_P2;Temp;Humidity;BMP_temperature;BMP_pressure;BME280_temperature;BME280_humidity;BME280_pressure;Samples;Min_cycle;Max_cycle;Signal;HPM_P1;HPM_P2
2023/06/25 00:02:06;;;;;;;10.05;8.48;;;18.90;99.90;;;;;;5054700;28;20307;-80
2023/06/25 00:04:32;;;;;;;10.50;8.80;;;18.90;99.90;;;;;;5042026;28;20310;-80
2023/06/25 00:06:59;;;;;;;11.82;10.30;;;18.90;99.90;;;;;;5039820;28;20319;-80
2023/06/25 00:09:26;;;;;;;11.48;9.88;;;18.80;99.90;;;;;;5056726;28;20244;-82
2023/06/25 00:11:52;;;;;;;11.75;10.55;;;18.80;99.90;;;;;;5047212;28;20240;-80
2023/06/25 00:14:19;;;;;;;13.30;9.93;;;18.80;99.90;;;;;;5041437;28;20814;-80
2023/06/25 00:16:47;;;;;;;11.88;10.15;;;18.70;99.90;;;;;;5056021;28;20315;-83
2023/06/25 00:19:18;;;;;;;11.60;8.88;;;18.70;99.90;;;;;;5045245;28;20224;-80
2023/06/25 00:21:45;;;;;;;11.23;9.27;;;18.70;99.90;;;;;;5057055;28;20224;-80
2023/06/25 00:24:11;;;;;;;12.73;9.20;;;18.70;99.90;;;;;;5043503;28;20230;-82
2023/06/25 00:26:45;;;;;;;10.57;9.25;;;18.70;99.90;;;;;;5059863;28;20836;-81
2023/06/25 00:29:12;;;;;;;9.77;8.77;;;18.60;99.90;;;;;;5042386;28;20239;-80
2023/06/25 00:31:38;;;;;;;10.95;9.15;;;18.60;99.90;;;;;;5049692;28;20216;-80
2023/06/25 00:34:06;;;;;;;13.88;9.25;;;18.50;99.90;;;;;;5040646;28;20308;-82
2023/06/25 00:36:36;;;;;;;9.70;8.50;;;18.50;99.90;;;;;;5038865;28;20266;-80
2023/06/25 00:39:03;;;;;;;13.18;8.95;;;18.40;99.90;;;;;;5047633;28;20224;-80
2023/06/25 00:41:30;;;;;;;10.88;9.40;;;18.40;99.90;;;;;;5042739;28;20229;-82
2023/06/25 00:43:57;;;;;;;10.20;8.77;;;18.40;99.90;;;;;;5039883;28;20216;-80
2023/06/25 00:46:25;;;;;;;11.35;9.00;;;18.30;99.90;;;;;;5037392;28;20319;-81
2023/06/25 00:48:53;;;;;;;11.00;9.38;;;18.30;99.90;;;;;;5038260;28;20570;-80
2023/06/25 00:51:26;;;;;;;13.48;10.85;;;18.20;99.90;;;;;;5042208;28;20303;-81
2023/06/25 00:53:53;;;;;;;13.00;10.45;;;18.20;99.90;;;;;;5044997;28;20281;-80
2023/06/25 00:56:27;;;;;;;12.65;10.77;;;18.10;99.90;;;;;;5041467;28;20243;-82
2023/06/25 00:59:00;;;;;;;12.93;10.50;;;18.10;99.90;;;;;;5056426;28;20917;-82
2023/06/25 01:01:36;;;;;;;10.70;9.40;;;18.00;99.90;;;;;;5034695;28;20917;-83
2023/06/25 01:04:19;;;;;;;13.82;9.45;;;18.00;99.90;;;;;;5059632;28;20223;-81
2023/06/25 01:06:52;;;;;;;11.40;10.20;;;17.90;99.90;;;;;;5054406;28;20249;-80
2023/06/25 01:09:21;;;;;;;11.40;8.95;;;17.90;99.90;;;;;;5056251;28;20750;-81
2023/06/25 01:11:53;;;;;;;13.88;11.10;;;17.80;99.90;;;;;;5064150;28;20259;-81
2023/06/25 01:14:21;;;;;;;13.13;11.27;;;17.80;99.90;;;;;;5066769;28;20886;-82
2023/06/25 01:16:49;;;;;;;13.43;11.35;;;17.80;99.90;;;;;;5069345;28;20234;-81
2023/06/25 01:19:17;;;;;;;14.18;10.48;;;17.70;99.90;;;;;;5068321;28;21613;-82
2023/06/25 01:21:47;;;;;;;12.65;11.35;;;17.70;99.90;;;;;;5083813;28;20271;-82
2023/06/25 01:24:16;;;;;;;13.10;11.00;;;17.70;99.90;;;;;;5086161;28;20774;-82
2023/06/25 01:26:43;;;;;;;13.45;10.93;;;17.60;99.90;;;;;;5065735;28;20223;-80
2023/06/25 01:29:11;;;;;;;12.82;9.63;;;17.60;99.90;;;;;;5070144;28;20250;-81
2023/06/25 01:31:40;;;;;;;13.75;10.52;;;17.50;99.90;;;;;;5066865;28;20231;-81
2023/06/25 01:34:07;;;;;;;16.05;11.05;;;17.50;99.90;;;;;;5064105;28;20881;-80
2023/06/25 01:36:39;;;;;;;11.50;9.73;;;17.50;99.90;;;;;;5073779;28;20223;-82
2023/06/25 01:39:06;;;;;;;12.20;10.35;;;17.40;99.90;;;;;;5074959;28;20306;-80
2023/06/25 01:41:35;;;;;;;12.40;10.27;;;17.40;99.90;;;;;;5066657;28;20926;-80
2023/06/25 01:44:02;;;;;;;12.98;10.52;;;17.30;99.90;;;;;;5064596;28;20254;-81
2023/06/25 01:46:29;;;;;;;13.68;10.88;;;17.30;99.90;;;;;;5057102;28;20236;-80
2023/06/25 01:48:56;;;;;;;14.50;11.13;;;17.30;99.90;;;;;;5044339;28;20224;-80
2023/06/25 01:51:23;;;;;;;12.43;9.57;;;17.20;99.90;;;;;;5051846;28;20247;-79
2023/06/25 01:53:50;;;;;;;11.93;10.13;;;17.20;99.90;;;;;;5063123;28;20349;-79
2023/06/25 01:56:17;;;;;;;12.85;10.18;;;17.20;99.90;;;;;;5046473;28;20282;-79
2023/06/25 01:58:46;;;;;;;11.88;9.35;;;17.10;99.90;;;;;;5073250;28;20323;-80
2023/06/25 02:01:13;;;;;;;10.65;9.55;;;17.10;99.90;;;;;;5051178;28;20239;-79
2023/06/25 02:03:40;;;;;;;11.13;9.50;;;17.00;99.90;;;;;;5059007;28;20230;-80
2023/06/25 02:06:06;;;;;;;11.25;9.90;;;17.00;99.90;;;;;;5054480;28;20235;-79
2023/06/25 02:08:33;;;;;;;13.35;8.93;;;17.00;99.90;;;;;;5057265;28;20293;-80
2023/06/25 02:11:01;;;;;;;11.68;10.45;;;17.00;99.90;;;;;;5054454;28;20228;-82
2023/06/25 02:13:28;;;;;;;14.07;10.68;;;16.90;99.90;;;;;;5047773;28;20263;-82
2023/06/25 02:15:56;;;;;;;11.98;9.95;;;16.90;99.90;;;;;;5056054;28;20219;-80
2023/06/25 02:18:23;;;;;;;12.35;10.15;;;16.80;99.90;;;;;;5047538;28;20223;-82
2023/06/25 02:20:49;;;;;;;12.35;9.98;;;16.80;99.90;;;;;;5057820;28;20240;-80
2023/06/25 02:23:16;;;;;;;11.88;9.90;;;16.70;99.90;;;;;;5042364;28;20216;-81
2023/06/25 02:25:43;;;;;;;14.85;10.18;;;16.70;99.90;;;;;;5054245;28;20224;-82
2023/06/25 02:28:10;;;;;;;13.98;9.35;;;16.70;99.90;;;;;;5057397;28;20468;-79
2023/06/25 02:30:37;;;;;;;10.93;9.20;;;16.60;99.90;;;;;;5065442;28;20390;-80
2023/06/25 02:33:05;;;;;;;11.93;9.60;;;16.60;99.90;;;;;;5050735;28;20311;-81
2023/06/25 02:35:32;;;;;;;11.98;9.70;;;16.60;99.90;;;;;;5057772;28;20232;-80
2023/06/25 02:37:59;;;;;;;11.40;10.18;;;16.50;99.90;;;;;;5061129;28;20229;-80
2023/06/25 02:40:27;;;;;;;12.45;10.43;;;16.50;99.90;;;;;;5048854;28;20900;-80
2023/06/25 02:42:54;;;;;;;13.63;10.47;;;16.40;99.90;;;;;;5059207;28;20235;-80
2023/06/25 02:45:20;;;;;;;11.98;10.27;;;16.50;99.90;;;;;;5046670;28;20957;-82
2023/06/25 02:47:47;;;;;;;11.68;10.05;;;16.40;99.90;;;;;;5051775;28;20244;-81
2023/06/25 02:50:16;;;;;;;12.70;10.07;;;16.40;99.90;;;;;;5051550;28;20272;-81
2023/06/25 02:52:45;;;;;;;15.60;11.15;;;16.40;99.90;;;;;;5047568;28;20241;-81
2023/06/25 02:55:12;;;;;;;12.67;10.40;;;16.40;99.90;;;;;;5054164;28;20263;-80
2023/06/25 02:57:38;;;;;;;13.37;10.47;;;16.40;99.90;;;;;;5054618;28;20359;-81
2023/06/25 03:00:07;;;;;;;11.15;9.60;;;16.40;99.90;;;;;;5059985;28;20216;-81
2023/06/25 03:02:35;;;;;;;10.45;9.23;;;16.30;99.90;;;;;;5055590;28;20303;-81
2023/06/25 03:05:01;;;;;;;12.90;10.53;;;16.30;99.90;;;;;;5049307;28;20221;-79
2023/06/25 03:07:31;;;;;;;13.20;11.20;;;16.30;99.90;;;;;;5072693;28;20319;-80
2023/06/25 03:09:57;;;;;;;13.35;11.00;;;16.30;99.90;;;;;;5073609;28;20294;-80
2023/06/25 03:12:25;;;;;;;13.88;10.90;;;16.30;99.90;;;;;;5071613;28;20223;-80
2023/06/25 03:14:51;;;;;;;12.20;10.27;;;16.20;99.90;;;;;;5074974;28;20264;-80
2023/06/25 03:17:20;;;;;;;12.32;10.18;;;16.20;99.90;;;;;;5078917;28;20897;-79
2023/06/25 03:19:47;;;;;;;12.02;10.57;;;16.20;99.90;;;;;;5073742;28;20936;-81
2023/06/25 03:22:14;;;;;;;11.48;9.68;;;16.20;99.90;;;;;;5075689;28;20246;-80
2023/06/25 03:24:45;;;;;;;10.77;9.63;;;16.20;99.90;;;;;;5075603;28;20228;-81
2023/06/25 03:27:12;;;;;;;10.93;9.70;;;16.20;99.90;;;;;;5072289;28;20216;-81
2023/06/25 03:29:39;;;;;;;10.93;9.38;;;16.20;99.90;;;;;;5080473;28;20881;-80
2023/06/25 03:32:06;;;;;;;13.93;10.10;;;16.20;99.90;;;;;;5084252;28;20222;-80
2023/06/25 03:34:33;;;;;;;16.20;10.77;;;16.20;99.90;;;;;;5079960;28;20311;-81
2023/06/25 03:37:00;;;;;;;12.82;9.88;;;16.20;99.90;;;;;;5068468;28;20223;-80
2023/06/25 03:39:27;;;;;;;11.07;9.48;;;16.20;99.90;;;;;;5073329;28;20743;-81
2023/06/25 03:41:55;;;;;;;13.60;9.13;;;16.20;99.90;;;;;;5076972;28;20685;-81
2023/06/25 03:44:22;;;;;;;11.47;9.63;;;16.20;99.90;;;;;;5078469;28;20230;-81
2023/06/25 03:46:49;;;;;;;11.63;9.73;;;16.20;99.90;;;;;;5072782;28;20280;-81
2023/06/25 03:49:16;;;;;;;12.35;8.98;;;16.30;99.90;;;;;;5078858;28;20218;-80
2023/06/25 03:51:42;;;;;;;18.00;10.48;;;16.30;99.90;;;;;;5075649;28;20755;-82
2023/06/25 03:54:09;;;;;;;17.63;11.02;;;16.40;99.90;;;;;;5064316;28;20220;-81
2023/06/25 03:56:37;;;;;;;10.35;9.23;;;16.40;99.90;;;;;;5065292;28;20904;-83
2023/06/25 03:59:05;;;;;;;14.30;10.00;;;16.50;99.90;;;;;;5074575;28;20735;-82
2023/06/25 04:01:33;;;;;;;13.60;9.77;;;16.50;99.90;;;;;;5071968;28;20249;-82
2023/06/25 04:04:00;;;;;;;11.85;9.07;;;16.60;99.90;;;;;;5072273;28;20959;-82
2023/06/25 04:06:26;;;;;;;13.02;9.95;;;16.60;99.90;;;;;;5068941;28;20309;-83
2023/06/25 04:08:53;;;;;;;15.40;11.03;;;16.60;99.90;;;;;;5067889;28;20226;-82
2023/06/25 04:11:20;;;;;;;13.70;10.13;;;16.70;99.90;;;;;;5067786;28;20231;-82
2023/06/25 04:13:47;;;;;;;14.30;10.25;;;16.80;99.90;;;;;;5074701;28;20220;-82
2023/06/25 04:16:15;;;;;;;17.75;10.68;;;16.90;99.90;;;;;;5068608;28;20219;-80
2023/06/25 04:18:42;;;;;;;14.23;10.70;;;17.00;99.90;;;;;;5069010;28;20223;-82
2023/06/25 04:21:09;;;;;;;13.55;10.63;;;17.10;99.90;;;;;;5083916;28;20230;-80
2023/06/25 04:23:36;;;;;;;12.77;11.02;;;17.10;99.90;;;;;;5071910;28;20274;-79
2023/06/25 04:26:03;;;;;;;13.88;11.75;;;17.20;99.90;;;;;;5072493;28;20223;-79
2023/06/25 04:28:30;;;;;;;13.85;11.65;;;17.30;99.90;;;;;;5074787;28;20622;-80
2023/06/25 04:30:57;;;;;;;16.23;12.88;;;17.30;99.90;;;;;;5087266;28;20303;-79
2023/06/25 04:33:25;;;;;;;16.10;12.35;;;17.40;99.90;;;;;;5067920;28;22583;-80
2023/06/25 04:35:52;;;;;;;15.60;12.38;;;17.50;99.90;;;;;;5073698;28;20240;-81
2023/06/25 04:38:18;;;;;;;14.73;12.02;;;17.60;99.90;;;;;;5063577;28;20222;-81
2023/06/25 04:40:45;;;;;;;16.02;12.13;;;17.70;99.90;;;;;;5073173;28;20223;-78
2023/06/25 04:43:12;;;;;;;16.05;11.88;;;17.90;99.90;;;;;;5075475;28;20307;-80
2023/06/25 04:45:41;;;;;;;15.63;12.15;;;18.00;99.90;;;;;;5070405;28;20228;-80
2023/06/25 04:48:08;;;;;;;16.55;12.82;;;18.10;99.90;;;;;;5063826;28;20249;-78
2023/06/25 04:50:36;;;;;;;16.00;12.65;;;18.20;99.90;;;;;;5055479;28;20808;-79
2023/06/25 04:53:03;;;;;;;16.00;12.18;;;18.40;99.90;;;;;;5060310;28;20301;-79
2023/06/25 04:55:30;;;;;;;17.90;12.40;;;18.50;99.90;;;;;;5063094;28;20242;-80
2023/06/25 04:57:57;;;;;;;14.95;11.82;;;18.60;99.90;;;;;;5062756;28;21000;-79
2023/06/25 05:00:24;;;;;;;16.73;12.50;;;18.80;99.90;;;;;;5063908;28;20235;-79
2023/06/25 05:02:51;;;;;;;13.65;11.30;;;18.90;99.90;;;;;;5058698;28;20240;-80
2023/06/25 05:05:18;;;;;;;15.10;11.27;;;19.00;99.90;;;;;;5058379;28;20242;-78
2023/06/25 05:07:47;;;;;;;15.23;11.60;;;19.10;99.90;;;;;;5054426;28;20215;-80
2023/06/25 05:10:15;;;;;;;17.70;11.43;;;19.20;99.90;;;;;;5062242;28;20227;-79
2023/06/25 05:12:42;;;;;;;14.10;11.57;;;19.30;99.90;;;;;;5060682;28;20215;-79
2023/06/25 05:15:10;;;;;;;12.05;10.15;;;19.40;99.90;;;;;;5074466;28;20219;-79
2023/06/25 05:17:37;;;;;;;12.32;10.50;;;19.50;99.90;;;;;;5058883;28;20560;-78
2023/06/25 05:20:05;;;;;;;13.32;10.98;;;19.50;99.90;;;;;;5059100;28;20226;-79
2023/06/25 05:22:32;;;;;;;15.30;10.38;;;19.60;99.90;;;;;;5057574;28;20250;-79
2023/06/25 05:25:01;;;;;;;12.45;10.13;;;19.60;99.90;;;;;;5069336;28;21048;-79
2023/06/25 05:27:27;;;;;;;13.93;9.90;;;19.60;99.90;;;;;;5059677;28;20306;-79
2023/06/25 05:29:54;;;;;;;11.82;9.80;;;19.70;99.90;;;;;;5068920;28;20229;-79
2023/06/25 05:32:21;;;;;;;12.07;9.35;;;19.70;99.90;;;;;;5057004;28;20223;-79
2023/06/25 05:34:48;;;;;;;13.48;9.40;;;19.70;99.90;;;;;;5067220;28;20219;-79
2023/06/25 05:37:15;;;;;;;9.35;8.35;;;19.80;99.90;;;;;;5058290;28;20331;-79
2023/06/25 05:39:42;;;;;;;10.52;9.40;;;19.80;99.90;;;;;;5059299;28;20945;-79
2023/06/25 05:42:10;;;;;;;12.15;9.15;;;20.00;99.90;;;;;;5060272;28;20225;-79
2023/06/25 05:44:37;;;;;;;12.50;8.90;;;20.10;99.90;;;;;;5063057;28;20223;-79
2023/06/25 05:47:05;;;;;;;10.18;9.10;;;20.20;99.90;;;;;;5057230;28;20980;-77
2023/06/25 05:49:32;;;;;;;10.35;8.60;;;20.40;99.90;;;;;;5058850;28;20230;-79
2023/06/25 05:51:59;;;;;;;9.93;8.30;;;20.60;99.90;;;;;;5062586;28;20301;-79
2023/06/25 05:54:25;;;;;;;10.07;8.02;;;20.80;99.90;;;;;;5060878;28;20263;-80
2023/06/25 05:56:52;;;;;;;13.60;7.90;;;21.00;99.90;;;;;;5064042;28;20227;-80
2023/06/25 05:59:20;;;;;;;8.93;7.70;;;21.20;99.90;;;;;;5065723;28;20767;-79
2023/06/25 06:01:47;;;;;;;9.75;8.30;;;21.30;99.90;;;;;;5050562;28;20731;-80
2023/06/25 06:04:14;;;;;;;9.52;7.50;;;21.50;99.90;;;;;;5062620;28;20324;-83
2023/06/25 06:06:41;;;;;;;9.00;7.05;;;21.70;99.90;;;;;;5070346;28;20255;-82
2023/06/25 06:09:07;;;;;;;7.82;6.47;;;21.90;99.90;;;;;;5081466;28;20237;-78
2023/06/25 06:11:34;;;;;;;8.98;6.53;;;22.00;99.90;;;;;;5066530;28;20309;-81
2023/06/25 06:14:01;;;;;;;11.05;7.57;;;22.10;99.90;;;;;;5064342;28;20219;-81
2023/06/25 06:16:29;;;;;;;8.15;6.63;;;22.20;99.90;;;;;;5055420;28;20363;-80
2023/06/25 06:18:55;;;;;;;8.88;6.15;;;22.30;99.90;;;;;;5062864;28;20753;-80
2023/06/25 06:21:22;;;;;;;6.55;5.95;;;22.40;99.90;;;;;;5063011;28;20269;-79
2023/06/25 06:23:49;;;;;;;6.68;5.78;;;22.50;99.90;;;;;;5068458;28;20234;-81
2023/06/25 06:26:17;;;;;;;6.82;5.53;;;22.50;99.90;;;;;;5067264;28;20229;-78
2023/06/25 06:28:44;;;;;;;6.88;5.72;;;22.60;99.90;;;;;;5054971;28;20617;-81
2023/06/25 06:31:10;;;;;;;8.20;6.15;;;22.60;99.90;;;;;;5067154;28;21060;-79
2023/06/25 06:33:38;;;;;;;5.80;5.20;;;22.70;99.90;;;;;;5063947;28;20730;-79
2023/06/25 06:36:05;;;;;;;7.38;6.10;;;22.70;99.90;;;;;;5058485;28;20234;-79
2023/06/25 06:38:32;;;;;;;7.97;6.43;;;22.70;99.90;;;;;;5062998;28;20707;-79
2023/06/25 06:40:58;;;;;;;6.55;5.72;;;22.80;99.90;;;;;;5059805;28;20443;-78
2023/06/25 06:43:25;;;;;;;7.65;5.00;;;22.80;99.90;;;;;;5067848;28;20223;-81
2023/06/25 06:45:52;;;;;;;8.50;5.20;;;22.90;99.90;;;;;;5063359;28;20715;-81
2023/06/25 06:48:18;;;;;;;7.90;5.63;;;22.90;99.90;;;;;;5056963;28;20228;-81
2023/06/25 06:50:48;;;;;;;7.18;5.07;;;23.00;99.90;;;;;;5061902;28;20340;-79
2023/06/25 06:53:15;;;;;;;7.68;5.97;;;23.00;99.90;;;;;;5067009;28;20489;-79
2023/06/25 06:55:41;;;;;;;6.05;5.45;;;23.10;99.90;;;;;;5064120;28;20223;-80
2023/06/25 06:58:08;;;;;;;5.97;5.18;;;23.20;99.90;;;;;;5060341;28;20216;-78
2023/06/25 07:00:35;;;;;;;5.85;5.22;;;23.30;99.90;;;;;;5059249;28;20238;-81
2023/06/25 07:03:02;;;;;;;7.55;5.63;;;23.50;99.90;;;;;;5059831;28;20311;-79
2023/06/25 07:05:28;;;;;;;6.13;5.25;;;23.70;99.90;;;;;;5070168;28;20216;-81
2023/06/25 07:07:56;;;;;;;7.45;4.53;;;24.00;99.90;;;;;;5061756;28;20216;-80
2023/06/25 07:10:23;;;;;;;5.25;4.72;;;24.50;99.90;;;;;;5061811;23;20562;-91
2023/06/25 07:12:50;;;;;;;5.60;5.00;;;25.10;99.90;;;;;;5060546;28;20310;-91
2023/06/25 07:15:16;;;;;;;5.95;5.43;;;25.70;99.30;;;;;;5055070;28;20226;-90
2023/06/25 07:17:44;;;;;;;6.38;5.72;;;26.30;98.90;;;;;;5026703;28;20220;-91
2023/06/25 07:20:11;;;;;;;6.25;5.28;;;26.90;98.20;;;;;;5026931;28;20329;-92
2023/06/25 07:22:40;;;;;;;4.50;4.10;;;27.50;97.00;;;;;;5041605;28;20228;-92
2023/06/25 07:25:10;;;;;;;6.70;5.20;;;28.20;97.10;;;;;;5049850;28;20229;-93
2023/06/25 07:27:36;;;;;;;5.38;4.63;;;28.80;94.80;;;;;;5035292;28;20220;-91
2023/06/25 07:30:04;;;;;;;5.35;4.70;;;29.40;94.60;;;;;;5040537;28;20227;-93
2023/06/25 07:32:31;;;;;;;5.40;4.45;;;30.00;93.90;;;;;;5050218;28;20233;-90
2023/06/25 07:34:58;;;;;;;5.30;4.70;;;30.50;93.60;;;;;;5048667;28;20227;-91
2023/06/25 07:37:24;;;;;;;5.45;4.78;;;31.00;90.30;;;;;;5040406;28;20224;-91
2023/06/25 07:39:51;;;;;;;5.88;4.55;;;31.30;89.00;;;;;;5055677;28;20767;-92
2023/06/25 07:42:19;;;;;;;5.05;4.55;;;31.60;88.20;;;;;;5041139;28;20802;-93
2023/06/25 07:44:46;;;;;;;5.32;4.50;;;31.80;85.30;;;;;;5054947;28;20220;-93
2023/06/25 07:47:15;;;;;;;4.85;4.40;;;32.00;79.90;;;;;;5045086;28;20302;-93
2023/06/25 07:49:41;;;;;;;5.88;4.93;;;32.10;79.40;;;;;;5044539;28;20953;-93
2023/06/25 07:52:08;;;;;;;6.10;4.45;;;32.00;77.10;;;;;;5045851;28;20224;-93
2023/06/25 07:54:35;;;;;;;7.32;4.85;;;32.10;80.20;;;;;;5038796;28;20250;-93
2023/06/25 07:57:02;;;;;;;4.72;4.22;;;32.10;78.10;;;;;;5042463;28;20228;-93
2023/06/25 07:59:30;;;;;;;5.65;4.78;;;32.20;79.40;;;;;;5046214;28;20223;-93
2023/06/25 08:01:57;;;;;;;5.70;5.10;;;32.40;76.90;;;;;;5044132;28;20817;-93
2023/06/25 08:04:24;;;;;;;6.18;4.78;;;32.50;75.20;;;;;;5026293;28;20236;-94
2023/06/25 08:06:51;;;;;;;5.45;4.88;;;32.60;75.10;;;;;;5043830;28;20885;-94
2023/06/25 08:09:17;;;;;;;6.82;5.63;;;32.60;75.50;;;;;;5046599;28;20303;-94
2023/06/25 08:11:44;;;;;;;6.40;5.10;;;32.60;76.30;;;;;;5038877;28;20228;-94
2023/06/25 08:14:11;;;;;;;7.65;5.00;;;32.70;76.20;;;;;;5037508;28;20225;-93
2023/06/25 08:16:39;;;;;;;6.47;5.13;;;32.80;73.70;;;;;;5054306;28;20861;-93
2023/06/25 08:19:06;;;;;;;5.57;4.47;;;32.90;71.80;;;;;;5046244;28;20350;-94
2023/06/25 08:21:33;;;;;;;4.53;4.13;;;33.00;72.30;;;;;;5046630;28;20301;-93
2023/06/25 08:23:59;;;;;;;7.60;4.78;;;33.00;71.80;;;;;;5058070;28;20227;-93
2023/06/25 08:26:26;;;;;;;5.65;4.68;;;33.20;71.20;;;;;;5040378;28;20287;-93
2023/06/25 08:28:53;;;;;;;5.38;4.88;;;33.50;71.80;;;;;;5055672;28;20251;-94
2023/06/25 08:31:20;;;;;;;5.05;4.40;;;33.70;70.10;;;;;;5049961;28;20224;-93
2023/06/25 08:33:48;;;;;;;4.65;4.25;;;34.10;70.60;;;;;;5039363;28;20255;-93
2023/06/25 08:36:15;;;;;;;6.10;5.10;;;34.40;69.20;;;;;;5039908;28;20224;-93
2023/06/25 08:38:44;;;;;;;5.38;4.88;;;34.70;66.80;;;;;;5052289;28;20311;-93
2023/06/25 08:41:12;;;;;;;5.65;4.88;;;35.00;64.60;;;;;;5050442;28;20232;-94
2023/06/25 08:43:40;;;;;;;6.22;4.70;;;35.20;64.80;;;;;;5044607;28;20220;-93
2023/06/25 08:46:08;;;;;;;6.85;5.15;;;35.30;64.80;;;;;;5045741;28;20690;-93
2023/06/25 08:48:37;;;;;;;5.03;4.47;;;35.30;62.90;;;;;;5043115;28;20704;-93
2023/06/25 08:51:13;;;;;;;5.22;4.70;;;35.40;63.30;;;;;;5040983;28;20220;-94
2023/06/25 08:53:39;;;;;;;6.78;5.10;;;35.40;62.30;;;;;;5044930;28;20235;-94
2023/06/25 08:56:08;;;;;;;6.00;5.50;;;35.50;62.50;;;;;;5038404;28;20713;-93
2023/06/25 08:58:36;;;;;;;6.18;5.65;;;35.50;60.40;;;;;;5053104;28;20228;-93
2023/06/25 09:01:03;;;;;;;5.72;5.22;;;35.50;60.20;;;;;;5041229;28;20467;-93
2023/06/25 09:03:30;;;;;;;5.63;5.13;;;35.50;60.50;;;;;;5055414;28;20236;-93
2023/06/25 09:05:57;;;;;;;5.65;5.15;;;35.50;62.50;;;;;;5048222;28;20807;-94
2023/06/25 09:08:27;;;;;;;5.45;4.85;;;35.60;61.10;;;;;;5043623;28;20334;-93
2023/06/25 09:10:57;;;;;;;5.95;5.35;;;35.90;60.70;;;;;;5049423;28;20912;-93
2023/06/25 09:13:25;;;;;;;6.10;5.50;;;36.30;61.90;;;;;;5043127;28;20362;-93
2023/06/25 09:15:54;;;;;;;7.13;6.40;;;36.70;60.20;;;;;;5036153;28;20739;-93
2023/06/25 09:18:22;;;;;;;6.32;5.72;;;37.00;59.20;;;;;;5050010;28;20227;-93
2023/06/25 09:20:49;;;;;;;5.82;5.28;;;37.30;58.10;;;;;;5036849;28;20227;-93
2023/06/25 09:23:22;;;;;;;6.15;5.25;;;37.60;58.00;;;;;;5054502;28;20243;-93
2023/06/25 09:25:51;;;;;;;6.22;5.63;;;37.80;56.70;;;;;;5034594;28;20747;-93
2023/06/25 09:28:18;;;;;;;6.10;5.60;;;38.00;55.40;;;;;;5043835;28;20238;-93
2023/06/25 09:30:45;;;;;;;6.88;6.18;;;37.90;54.20;;;;;;5041555;28;20639;-93
2023/06/25 09:33:13;;;;;;;5.75;5.15;;;37.90;54.80;;;;;;5048335;28;20236;-93
2023/06/25 09:35:40;;;;;;;6.07;5.45;;;37.80;55.00;;;;;;5055009;28;20303;-93
2023/06/25 09:38:07;;;;;;;5.50;5.00;;;37.80;54.70;;;;;;5040712;28;20802;-94
2023/06/25 09:40:34;;;;;;;6.45;4.97;;;38.00;54.80;;;;;;5038181;28;20224;-94
2023/06/25 09:43:06;;;;;;;6.45;5.47;;;38.00;54.70;;;;;;5040712;28;20236;-94
2023/06/25 09:45:37;;;;;;;7.18;6.50;;;38.10;52.70;;;;;;5026652;28;20316;-94
2023/06/25 09:48:09;;;;;;;6.45;5.57;;;38.10;52.00;;;;;;5021444;28;20232;-94
2023/06/25 09:50:39;;;;;;;5.32;4.82;;;38.10;52.50;;;;;;5019413;28;20225;-94
2023/06/25 09:53:11;;;;;;;6.07;5.55;;;38.20;51.80;;;;;;5020787;28;20307;-94
2023/06/25 09:55:38;;;;;;;8.30;5.43;;;38.30;52.60;;;;;;5022682;28;20312;-93
2023/06/25 09:58:07;;;;;;;6.25;5.65;;;38.50;52.80;;;;;;5015236;28;20225;-94
2023/06/25 10:00:35;;;;;;;5.80;5.25;;;38.60;50.00;;;;;;5023489;28;20233;-94
2023/06/25 10:03:03;;;;;;;6.05;5.45;;;38.70;50.80;;;;;;5022155;28;20217;-93
2023/06/25 10:05:31;;;;;;;6.90;6.20;;;38.80;50.10;;;;;;5017522;28;20283;-93
2023/06/25 10:07:58;;;;;;;7.13;6.43;;;38.70;48.60;;;;;;5024811;28;20224;-93
2023/06/25 10:10:28;;;;;;;5.93;5.43;;;38.60;49.60;;;;;;5018207;28;20240;-93
2023/06/25 10:12:55;;;;;;;6.55;5.32;;;38.60;49.60;;;;;;5028656;28;20235;-93
2023/06/25 10:15:31;;;;;;;5.75;5.20;;;38.50;49.40;;;;;;5015978;28;20213;-93
2023/06/25 10:17:59;;;;;;;8.95;5.72;;;38.40;49.50;;;;;;5023663;28;20279;-93
2023/06/25 10:20:27;;;;;;;6.97;6.30;;;38.30;49.90;;;;;;5021279;28;20244;-93
2023/06/25 10:23:08;;;;;;;6.32;5.72;;;38.30;48.90;;;;;;5021288;28;20216;-93
2023/06/25 10:25:36;;;;;;;5.38;4.78;;;38.30;48.80;;;;;;5034664;28;20297;-93
2023/06/25 10:28:05;;;;;;;6.50;5.90;;;38.40;50.00;;;;;;5038150;28;20510;-92
2023/06/25 10:30:39;;;;;;;7.35;5.72;;;38.60;49.60;;;;;;5047288;28;20233;-94
2023/06/25 10:33:06;;;;;;;7.22;6.20;;;38.70;47.60;;;;;;5049244;28;20220;-94
2023/06/25 10:35:39;;;;;;;5.95;5.40;;;38.80;46.90;;;;;;5048802;28;20278;-93
2023/06/25 10:38:06;;;;;;;6.18;5.57;;;38.80;47.50;;;;;;5041052;28;20224;-94
2023/06/25 10:40:34;;;;;;;9.57;6.57;;;38.70;47.60;;;;;;5034489;28;20320;-93
2023/06/25 10:43:00;;;;;;;5.95;5.35;;;38.70;47.60;;;;;;5038245;28;20224;-93
2023/06/25 10:45:29;;;;;;;6.72;5.80;;;38.70;47.40;;;;;;5039189;28;20797;-93
2023/06/25 10:48:05;;;;;;;7.18;5.93;;;38.60;46.50;;;;;;5046385;28;20239;-94
2023/06/25 10:50:33;;;;;;;6.15;5.45;;;38.30;46.90;;;;;;5045749;28;20255;-93
2023/06/25 10:53:00;;;;;;;6.07;5.57;;;38.10;47.60;;;;;;5043042;28;20303;-93
2023/06/25 10:55:27;;;;;;;5.75;5.10;;;37.70;47.30;;;;;;5041338;28;20248;-93
2023/06/25 10:57:55;;;;;;;5.60;5.10;;;37.40;47.90;;;;;;5049263;28;20220;-93
2023/06/25 11:00:23;;;;;;;5.90;5.40;;;37.10;48.00;;;;;;5040964;28;20225;-94
2023/06/25 11:02:51;;;;;;;7.40;5.38;;;36.70;48.40;;;;;;5042144;28;20278;-93
2023/06/25 11:05:22;;;;;;;5.70;5.20;;;36.40;48.60;;;;;;5038851;28;20223;-94
2023/06/25 11:07:55;;;;;;;5.85;5.35;;;36.20;48.90;;;;;;5044085;28;20224;-93
2023/06/25 11:10:23;;;;;;;5.72;5.20;;;36.00;49.50;;;;;;5041379;28;20220;-94
2023/06/25 11:12:49;;;;;;;5.93;5.38;;;36.10;49.90;;;;;;5046781;28;20231;-91
2023/06/25 11:15:17;;;;;;;6.35;5.70;;;36.30;49.70;;;;;;5058028;28;20307;-92
2023/06/25 11:17:44;;;;;;;6.60;6.05;;;36.50;51.00;;;;;;5048177;28;20334;-91
2023/06/25 11:20:12;;;;;;;6.45;5.80;;;36.70;50.20;;;;;;5056118;28;20244;-94
2023/06/25 11:22:44;;;;;;;6.57;5.97;;;36.90;50.30;;;;;;5045617;28;20637;-93
2023/06/25 11:25:12;;;;;;;6.38;5.78;;;37.10;49.70;;;;;;5056499;28;20269;-93
2023/06/25 11:27:39;;;;;;;7.55;6.03;;;37.30;50.10;;;;;;5037453;28;20220;-94
2023/06/25 11:30:10;;;;;;;6.60;6.00;;;37.50;49.40;;;;;;5049991;28;20306;-93
2023/06/25 11:32:39;;;;;;;5.90;5.38;;;37.60;47.60;;;;;;5044136;28;20224;-93
2023/06/25 11:35:12;;;;;;;6.07;5.47;;;37.70;48.10;;;;;;5050919;28;20711;-94
2023/06/25 11:37:45;;;;;;;6.35;5.65;;;37.60;47.70;;;;;;5044145;28;20244;-94
2023/06/25 11:40:23;;;;;;;6.57;5.78;;;37.50;47.80;;;;;;5037558;28;20227;-94
2023/06/25 11:42:51;;;;;;;6.45;5.85;;;37.50;47.90;;;;;;5049622;28;20228;-93
2023/06/25 11:45:18;;;;;;;6.35;5.75;;;37.40;47.80;;;;;;5038527;28;20266;-94
2023/06/25 11:47:45;;;;;;;7.00;6.15;;;37.40;48.00;;;;;;5054366;28;20300;-94
2023/06/25 11:50:12;;;;;;;7.07;6.47;;;37.50;47.80;;;;;;5049117;28;20258;-94
2023/06/25 11:52:39;;;;;;;7.50;6.10;;;37.50;48.20;;;;;;5039605;28;20216;-94
2023/06/25 11:55:08;;;;;;;7.15;6.55;;;37.30;48.10;;;;;;5044962;28;20220;-93
2023/06/25 11:57:37;;;;;;;6.50;5.97;;;37.10;47.80;;;;;;5042135;28;22073;-94
2023/06/25 12:00:05;;;;;;;6.38;5.88;;;36.90;47.80;;;;;;5050559;28;20302;-93
2023/06/25 12:02:32;;;;;;;7.88;5.85;;;36.60;48.00;;;;;;5040634;28;20229;-93
2023/06/25 12:04:59;;;;;;;7.25;5.93;;;36.40;47.90;;;;;;5039662;28;20247;-93
2023/06/25 12:07:25;;;;;;;6.47;5.75;;;36.10;48.20;;;;;;5053528;28;20307;-93
2023/06/25 12:09:55;;;;;;;6.20;5.50;;;35.90;48.40;;;;;;5039727;28;20225;-93
2023/06/25 12:12:23;;;;;;;7.18;6.47;;;35.70;48.30;;;;;;5054359;28;20235;-93
2023/06/25 12:14:50;;;;;;;7.75;6.47;;;35.50;48.70;;;;;;5045252;28;20638;-94
2023/06/25 12:17:17;;;;;;;7.82;7.05;;;35.20;49.70;;;;;;5050841;28;20247;-93
2023/06/25 12:19:43;;;;;;;6.70;6.20;;;35.00;50.30;;;;;;5047338;28;20242;-93
2023/06/25 12:22:10;;;;;;;7.35;6.75;;;34.70;49.90;;;;;;5041697;28;20344;-93
2023/06/25 12:24:37;;;;;;;8.55;7.75;;;34.50;50.00;;;;;;5040305;28;20285;-93
2023/06/25 12:27:05;;;;;;;7.45;6.75;;;34.30;50.40;;;;;;5042685;28;20243;-94
2023/06/25 12:29:33;;;;;;;7.57;6.93;;;34.10;51.20;;;;;;5047466;28;20236;-93
2023/06/25 12:32:00;;;;;;;6.75;6.15;;;33.90;50.70;;;;;;5049301;28;20224;-94
2023/06/25 12:34:30;;;;;;;7.22;6.55;;;33.90;51.40;;;;;;5047919;28;20712;-93
2023/06/25 12:37:00;;;;;;;7.20;6.50;;;33.80;51.70;;;;;;5051909;28;20219;-93
2023/06/25 12:39:27;;;;;;;6.57;5.97;;;34.00;51.60;;;;;;5060849;28;20247;-93
2023/06/25 12:41:53;;;;;;;6.63;5.97;;;34.10;51.80;;;;;;5046983;28;20311;-93
2023/06/25 12:44:20;;;;;;;7.45;6.75;;;34.10;51.50;;;;;;5051888;28;20217;-93